KPCW

Erie-Ottawa International Airport

Port Clinton, Ohio, USA
METAR KPCW 171815Z AUTO 33014G20KT 10SM FEW065 10/03 A3014 RMK AO2
Observed Flight Rules
Oct-17 @ 18:15 UTC (33 minutes ago) Visual Flight Rules
Wind Visibility Clouds
330° at 14 knots
 Gusting to 20 knots
10 miles
  • Few at 6,500' AGL
Temperatures Readings
Current 10°C / 50°F
Dewpoint 3°C / 37°F
Humidity 62%
Altimeter 30.14" Hg
Pressure 1021 hPa
Elevation 178
METAR KPCW 171815Z AUTO 33014G20KT 10SM FEW065 10/03 A3014 RMK AO2
Observed Flight Rules
Oct-17 @ 18:15 UTC
(33 minutes ago)
VFR
Wind Visibility
330° at 14 knots
 Gusting to 20 knots
10 miles
Clouds
  • Few at 6,500' AGL
Temperature Dewpoint
10°C / 50°F 3°C / 37°F
Humidity Altimeter Pressure
62% 30.14" Hg 1021 hPa